Aviation Digital Data Service (ADDS)

Output produced by METARs form (1746 UTC 24 November 2014)
found at http://aviationweather.gov/adds/metars/
 
KPSM 241720Z 2418/2518 16010KT 2SM -RA BR OVC004 WS020/21045KT 
     FM242100 19009KT 3SM BR BKN008 
     FM250000 21010KT P6SM BKN025